Grandview, OR

4:09 AM PST on December 07, 2016 (GMT -0800)
3 Rivers North | | Change Station

Elev 2451 ft 44.58 °N, 121.35 °W | Updated 4 minutes ago

Mostly Cloudy
Mostly Cloudy
17.8 °F
Feels Like 10 °F
N
5.0
Wind Variable Wind from South

Today
High -- | Low -- °F
--% Chance of Precip.
Yesterday
High -- | Low -- °F
Precip. -- in
Pressure 30.37 in
Visibility 10.0 miles
Clouds Mostly Cloudy 300 ft
Windchill 10 °F
Dew Point 12 °F
Humidity 79%
Rainfall 3.39 in
Snow Depth Not available.
7:28 AM 4:25 PM
First Quarter, 52% visible
METAR KRDM 071156Z AUTO 16004KT 10SM BKN003 M13/M16 A3025 RMK AO2 SLP283 70009 I1000 I6002 T11281156 11072 21133 51001
Pressure 30.37 in
Visibility 10.0 miles
Clouds Mostly Cloudy 300 ft
Windchill 10 °F
Dew Point 12 °F
Humidity 79%
Rainfall 3.39 in
Snow Depth Not available.
7:28 AM 4:25 PM
First Quarter, 52% visible
METAR KRDM 071156Z AUTO 16004KT 10SM BKN003 M13/M16 A3025 RMK AO2 SLP283 70009 I1000 I6002 T11281156 11072 21133 51001

10-Day Weather Forecast

Almanac

Astronomy

Dec. 07, 2016 Rise Set
Actual Time
Civil Twilight
Nautical Twilight
Astronomical Twilight
Moon
Length of Visible Light
Length of Day
Tomorrow will be .
, % of the Moon is Illuminated

Today's Extremes

State Highs State Lows

Community

WunderPhotos

Upload Photos

1,956,111 photos uploaded!

WunderBlog® & News

Nearby

Air Quality

  Air Quality AQ Index Pollutant
Not available.

Snow Depth

Station Depth Elevation

Earthquake Activity

City Distance Mag. Time & Date
Minimum magnitude displayed is 2.5.

Coastal Water Temperatures

Place Temperature

Stations

Nearby Weather Stations

Station Location Temp. Windchill Dew Point Humidity Wind Precip. Elev Updated Type
                   

Watches & Warnings

There are currently no watches in effect.